sensor_id;sensor_type;location;lat;lon;timestamp;temperature;humidity
19090;DHT22;9677;50.656;13.064;2022-10-16T00:00:08;17.30;61.60
19090;DHT22;9677;50.656;13.064;2022-10-16T00:02:37;17.30;61.70
19090;DHT22;9677;50.656;13.064;2022-10-16T00:05:06;17.40;61.70
19090;DHT22;9677;50.656;13.064;2022-10-16T00:07:35;17.30;61.60
19090;DHT22;9677;50.656;13.064;2022-10-16T00:10:04;17.30;61.60
19090;DHT22;9677;50.656;13.064;2022-10-16T00:12:33;17.30;61.60
19090;DHT22;9677;50.656;13.064;2022-10-16T00:15:04;17.30;61.60
19090;DHT22;9677;50.656;13.064;2022-10-16T00:17:33;17.30;61.70
19090;DHT22;9677;50.656;13.064;2022-10-16T00:20:03;17.20;61.60
19090;DHT22;9677;50.656;13.064;2022-10-16T00:22:32;17.20;61.70
19090;DHT22;9677;50.656;13.064;2022-10-16T00:25:01;17.20;61.70
19090;DHT22;9677;50.656;13.064;2022-10-16T00:27:30;17.20;61.60
19090;DHT22;9677;50.656;13.064;2022-10-16T00:29:58;17.20;61.60
19090;DHT22;9677;50.656;13.064;2022-10-16T00:32:28;17.20;61.60
19090;DHT22;9677;50.656;13.064;2022-10-16T00:34:57;17.10;61.60
19090;DHT22;9677;50.656;13.064;2022-10-16T00:37:26;17.10;61.60
19090;DHT22;9677;50.656;13.064;2022-10-16T00:39:54;17.10;61.60
19090;DHT22;9677;50.656;13.064;2022-10-16T00:42:23;17.10;61.60
19090;DHT22;9677;50.656;13.064;2022-10-16T00:44:53;17.10;61.70
19090;DHT22;9677;50.656;13.064;2022-10-16T00:47:27;17.10;61.80
19090;DHT22;9677;50.656;13.064;2022-10-16T00:50:02;17.10;61.90
19090;DHT22;9677;50.656;13.064;2022-10-16T00:52:35;17.00;61.80
19090;DHT22;9677;50.656;13.064;2022-10-16T00:55:05;17.00;61.80
19090;DHT22;9677;50.656;13.064;2022-10-16T00:57:35;17.00;61.90
19090;DHT22;9677;50.656;13.064;2022-10-16T01:00:06;17.00;62.00
19090;DHT22;9677;50.656;13.064;2022-10-16T01:02:38;17.00;62.20
19090;DHT22;9677;50.656;13.064;2022-10-16T01:05:07;16.90;62.20
19090;DHT22;9677;50.656;13.064;2022-10-16T01:07:43;16.90;62.30
19090;DHT22;9677;50.656;13.064;2022-10-16T01:10:25;16.90;62.70
19090;DHT22;9677;50.656;13.064;2022-10-16T01:12:59;17.00;63.00
19090;DHT22;9677;50.656;13.064;2022-10-16T01:15:32;17.00;62.80
19090;DHT22;9677;50.656;13.064;2022-10-16T01:18:08;17.00;62.80
19090;DHT22;9677;50.656;13.064;2022-10-16T01:20:44;17.00;62.80
19090;DHT22;9677;50.656;13.064;2022-10-16T01:23:26;17.00;62.70
19090;DHT22;9677;50.656;13.064;2022-10-16T01:26:12;17.00;62.70
19090;DHT22;9677;50.656;13.064;2022-10-16T01:28:49;17.00;62.60
19090;DHT22;9677;50.656;13.064;2022-10-16T01:31:24;17.00;62.50
19090;DHT22;9677;50.656;13.064;2022-10-16T01:33:59;17.00;62.50
19090;DHT22;9677;50.656;13.064;2022-10-16T01:36:35;17.00;62.60
19090;DHT22;9677;50.656;13.064;2022-10-16T01:39:09;16.90;62.70
19090;DHT22;9677;50.656;13.064;2022-10-16T01:41:41;17.00;62.70
19090;DHT22;9677;50.656;13.064;2022-10-16T01:44:16;17.00;62.70
19090;DHT22;9677;50.656;13.064;2022-10-16T01:46:49;17.00;62.80
19090;DHT22;9677;50.656;13.064;2022-10-16T01:49:21;17.00;62.80
19090;DHT22;9677;50.656;13.064;2022-10-16T01:51:54;17.00;62.80
19090;DHT22;9677;50.656;13.064;2022-10-16T01:54:27;16.90;62.90
19090;DHT22;9677;50.656;13.064;2022-10-16T01:56:59;17.00;63.00
19090;DHT22;9677;50.656;13.064;2022-10-16T01:59:31;16.90;62.90
19090;DHT22;9677;50.656;13.064;2022-10-16T02:02:07;16.90;63.00
19090;DHT22;9677;50.656;13.064;2022-10-16T02:04:58;17.00;63.00
19090;DHT22;9677;50.656;13.064;2022-10-16T02:07:31;16.90;62.90
19090;DHT22;9677;50.656;13.064;2022-10-16T02:10:00;17.00;62.90
19090;DHT22;9677;50.656;13.064;2022-10-16T02:12:31;17.00;63.00
19090;DHT22;9677;50.656;13.064;2022-10-16T02:15:03;17.00;63.10
19090;DHT22;9677;50.656;13.064;2022-10-16T02:17:32;17.00;63.10
19090;DHT22;9677;50.656;13.064;2022-10-16T02:20:01;17.00;63.10
19090;DHT22;9677;50.656;13.064;2022-10-16T02:22:33;17.00;63.10
19090;DHT22;9677;50.656;13.064;2022-10-16T02:25:07;17.00;63.00
19090;DHT22;9677;50.656;13.064;2022-10-16T02:27:42;17.00;63.00
19090;DHT22;9677;50.656;13.064;2022-10-16T02:30:21;17.00;63.10
19090;DHT22;9677;50.656;13.064;2022-10-16T02:32:53;17.00;63.10
19090;DHT22;9677;50.656;13.064;2022-10-16T02:35:23;17.10;63.00
19090;DHT22;9677;50.656;13.064;2022-10-16T02:37:53;17.10;63.00
19090;DHT22;9677;50.656;13.064;2022-10-16T02:40:22;17.10;63.00
19090;DHT22;9677;50.656;13.064;2022-10-16T02:42:54;17.10;63.00
19090;DHT22;9677;50.656;13.064;2022-10-16T02:45:24;17.00;63.00
19090;DHT22;9677;50.656;13.064;2022-10-16T02:47:53;17.00;62.90
19090;DHT22;9677;50.656;13.064;2022-10-16T02:50:22;17.10;62.90
19090;DHT22;9677;50.656;13.064;2022-10-16T02:52:52;17.00;62.90
19090;DHT22;9677;50.656;13.064;2022-10-16T02:55:20;17.00;62.90
19090;DHT22;9677;50.656;13.064;2022-10-16T02:57:49;17.00;62.90
19090;DHT22;9677;50.656;13.064;2022-10-16T03:00:18;17.10;63.00
19090;DHT22;9677;50.656;13.064;2022-10-16T03:02:48;17.00;62.90
19090;DHT22;9677;50.656;13.064;2022-10-16T03:05:17;17.00;63.00
19090;DHT22;9677;50.656;13.064;2022-10-16T03:07:46;17.00;62.90
19090;DHT22;9677;50.656;13.064;2022-10-16T03:10:14;17.00;62.90
19090;DHT22;9677;50.656;13.064;2022-10-16T03:12:43;17.10;63.00
19090;DHT22;9677;50.656;13.064;2022-10-16T03:15:11;17.00;63.00
19090;DHT22;9677;50.656;13.064;2022-10-16T03:17:40;17.10;63.00
19090;DHT22;9677;50.656;13.064;2022-10-16T03:20:10;17.10;63.00
19090;DHT22;9677;50.656;13.064;2022-10-16T03:22:39;17.00;62.90
19090;DHT22;9677;50.656;13.064;2022-10-16T03:25:08;17.00;62.80
19090;DHT22;9677;50.656;13.064;2022-10-16T03:27:37;17.00;62.80
19090;DHT22;9677;50.656;13.064;2022-10-16T03:30:06;17.00;62.80
19090;DHT22;9677;50.656;13.064;2022-10-16T03:32:36;17.00;62.90
19090;DHT22;9677;50.656;13.064;2022-10-16T03:35:05;17.00;62.90
19090;DHT22;9677;50.656;13.064;2022-10-16T03:37:36;16.90;62.90
19090;DHT22;9677;50.656;13.064;2022-10-16T03:40:05;16.90;62.90
19090;DHT22;9677;50.656;13.064;2022-10-16T03:42:34;16.90;62.90
19090;DHT22;9677;50.656;13.064;2022-10-16T03:45:03;16.90;62.80
19090;DHT22;9677;50.656;13.064;2022-10-16T03:47:33;16.90;62.90
19090;DHT22;9677;50.656;13.064;2022-10-16T03:50:01;16.90;62.80
19090;DHT22;9677;50.656;13.064;2022-10-16T03:52:30;16.90;62.90
19090;DHT22;9677;50.656;13.064;2022-10-16T03:55:01;16.90;62.90
19090;DHT22;9677;50.656;13.064;2022-10-16T03:57:29;16.90;62.90
19090;DHT22;9677;50.656;13.064;2022-10-16T03:59:58;16.90;63.00
19090;DHT22;9677;50.656;13.064;2022-10-16T04:02:26;16.80;62.90
19090;DHT22;9677;50.656;13.064;2022-10-16T04:04:55;16.80;63.00
19090;DHT22;9677;50.656;13.064;2022-10-16T04:07:24;16.80;63.10
19090;DHT22;9677;50.656;13.064;2022-10-16T04:09:52;16.80;63.20
19090;DHT22;9677;50.656;13.064;2022-10-16T04:12:22;16.80;63.30
19090;DHT22;9677;50.656;13.064;2022-10-16T04:14:51;16.80;63.40
19090;DHT22;9677;50.656;13.064;2022-10-16T04:17:19;16.80;63.40
19090;DHT22;9677;50.656;13.064;2022-10-16T04:19:48;16.80;63.60
19090;DHT22;9677;50.656;13.064;2022-10-16T04:22:17;16.80;63.60
19090;DHT22;9677;50.656;13.064;2022-10-16T04:24:45;16.80;63.80
19090;DHT22;9677;50.656;13.064;2022-10-16T04:27:14;16.80;63.90
19090;DHT22;9677;50.656;13.064;2022-10-16T04:29:44;16.80;63.90
19090;DHT22;9677;50.656;13.064;2022-10-16T04:32:12;16.90;64.10
19090;DHT22;9677;50.656;13.064;2022-10-16T04:34:41;16.80;64.00
19090;DHT22;9677;50.656;13.064;2022-10-16T04:37:09;16.90;64.20
19090;DHT22;9677;50.656;13.064;2022-10-16T04:39:38;16.90;64.20
19090;DHT22;9677;50.656;13.064;2022-10-16T04:42:07;16.90;64.20
19090;DHT22;9677;50.656;13.064;2022-10-16T04:44:35;16.90;64.20
19090;DHT22;9677;50.656;13.064;2022-10-16T04:47:05;17.00;64.30
19090;DHT22;9677;50.656;13.064;2022-10-16T04:49:34;17.00;64.40
19090;DHT22;9677;50.656;13.064;2022-10-16T04:52:03;17.00;64.40
19090;DHT22;9677;50.656;13.064;2022-10-16T04:54:32;17.00;64.50
19090;DHT22;9677;50.656;13.064;2022-10-16T04:57:01;17.00;64.50
19090;DHT22;9677;50.656;13.064;2022-10-16T04:59:29;17.00;64.50
19090;DHT22;9677;50.656;13.064;2022-10-16T05:01:58;17.10;64.70
19090;DHT22;9677;50.656;13.064;2022-10-16T05:04:28;17.10;64.80
19090;DHT22;9677;50.656;13.064;2022-10-16T05:06:56;17.10;64.80
19090;DHT22;9677;50.656;13.064;2022-10-16T05:09:25;17.20;64.70
19090;DHT22;9677;50.656;13.064;2022-10-16T05:11:54;17.20;64.70
19090;DHT22;9677;50.656;13.064;2022-10-16T05:14:22;17.20;64.70
19090;DHT22;9677;50.656;13.064;2022-10-16T05:16:51;17.20;64.70
19090;DHT22;9677;50.656;13.064;2022-10-16T05:19:20;17.30;64.90
19090;DHT22;9677;50.656;13.064;2022-10-16T05:21:55;17.30;65.00
19090;DHT22;9677;50.656;13.064;2022-10-16T05:24:27;17.30;65.00
19090;DHT22;9677;50.656;13.064;2022-10-16T05:26:55;17.30;65.00
19090;DHT22;9677;50.656;13.064;2022-10-16T05:32:46;17.40;65.30
19090;DHT22;9677;50.656;13.064;2022-10-16T05:35:16;17.40;64.70
19090;DHT22;9677;50.656;13.064;2022-10-16T05:37:47;17.40;64.60
19090;DHT22;9677;50.656;13.064;2022-10-16T05:40:16;17.40;64.50
19090;DHT22;9677;50.656;13.064;2022-10-16T05:42:45;17.50;64.50
19090;DHT22;9677;50.656;13.064;2022-10-16T05:45:13;17.50;64.50
19090;DHT22;9677;50.656;13.064;2022-10-16T05:47:42;17.50;64.50
19090;DHT22;9677;50.656;13.064;2022-10-16T05:50:11;17.50;64.30
19090;DHT22;9677;50.656;13.064;2022-10-16T05:52:39;17.50;64.20
19090;DHT22;9677;50.656;13.064;2022-10-16T05:55:10;17.50;64.10
19090;DHT22;9677;50.656;13.064;2022-10-16T05:57:38;17.50;64.20
19090;DHT22;9677;50.656;13.064;2022-10-16T06:00:08;17.50;64.20
19090;DHT22;9677;50.656;13.064;2022-10-16T06:02:41;17.50;64.30
19090;DHT22;9677;50.656;13.064;2022-10-16T06:05:10;17.40;64.30
19090;DHT22;9677;50.656;13.064;2022-10-16T06:07:38;17.50;64.50
19090;DHT22;9677;50.656;13.064;2022-10-16T06:10:09;17.50;64.40
19090;DHT22;9677;50.656;13.064;2022-10-16T06:12:37;17.50;64.40
19090;DHT22;9677;50.656;13.064;2022-10-16T06:15:07;17.50;64.30
19090;DHT22;9677;50.656;13.064;2022-10-16T06:17:36;17.50;64.30
19090;DHT22;9677;50.656;13.064;2022-10-16T06:20:05;17.50;64.30
19090;DHT22;9677;50.656;13.064;2022-10-16T06:22:34;17.50;64.30
19090;DHT22;9677;50.656;13.064;2022-10-16T06:25:04;17.50;64.30
19090;DHT22;9677;50.656;13.064;2022-10-16T06:27:35;17.50;64.40
19090;DHT22;9677;50.656;13.064;2022-10-16T06:30:04;17.50;64.50
19090;DHT22;9677;50.656;13.064;2022-10-16T06:32:33;17.50;64.60
19090;DHT22;9677;50.656;13.064;2022-10-16T06:35:02;17.50;64.60
19090;DHT22;9677;50.656;13.064;2022-10-16T06:37:31;17.50;64.60
19090;DHT22;9677;50.656;13.064;2022-10-16T06:39:59;17.50;64.70
19090;DHT22;9677;50.656;13.064;2022-10-16T06:42:31;17.60;64.80
19090;DHT22;9677;50.656;13.064;2022-10-16T06:45:01;17.60;64.80
19090;DHT22;9677;50.656;13.064;2022-10-16T06:47:29;17.60;64.80
19090;DHT22;9677;50.656;13.064;2022-10-16T06:49:58;17.60;64.80
19090;DHT22;9677;50.656;13.064;2022-10-16T06:52:27;17.70;64.80
19090;DHT22;9677;50.656;13.064;2022-10-16T06:54:56;17.70;64.70
19090;DHT22;9677;50.656;13.064;2022-10-16T06:57:25;17.70;64.70
19090;DHT22;9677;50.656;13.064;2022-10-16T06:59:53;17.70;64.70
19090;DHT22;9677;50.656;13.064;2022-10-16T07:02:23;17.70;64.70
19090;DHT22;9677;50.656;13.064;2022-10-16T07:04:52;17.70;64.70
19090;DHT22;9677;50.656;13.064;2022-10-16T07:07:20;17.70;64.60
19090;DHT22;9677;50.656;13.064;2022-10-16T07:09:51;17.70;64.70
19090;DHT22;9677;50.656;13.064;2022-10-16T07:12:20;17.80;64.90
19090;DHT22;9677;50.656;13.064;2022-10-16T07:14:49;17.80;64.90
19090;DHT22;9677;50.656;13.064;2022-10-16T07:17:19;17.80;65.00
19090;DHT22;9677;50.656;13.064;2022-10-16T07:19:49;17.80;65.10
19090;DHT22;9677;50.656;13.064;2022-10-16T07:22:20;17.80;65.20
19090;DHT22;9677;50.656;13.064;2022-10-16T07:24:48;17.90;65.20
19090;DHT22;9677;50.656;13.064;2022-10-16T07:27:18;17.90;65.10
19090;DHT22;9677;50.656;13.064;2022-10-16T07:29:49;17.90;65.20
19090;DHT22;9677;50.656;13.064;2022-10-16T07:32:18;18.00;65.30
19090;DHT22;9677;50.656;13.064;2022-10-16T07:34:46;18.00;65.30
19090;DHT22;9677;50.656;13.064;2022-10-16T07:37:16;18.00;66.10
19090;DHT22;9677;50.656;13.064;2022-10-16T07:39:45;18.10;65.50
19090;DHT22;9677;50.656;13.064;2022-10-16T07:42:13;18.10;65.50
19090;DHT22;9677;50.656;13.064;2022-10-16T07:44:42;18.20;65.70
19090;DHT22;9677;50.656;13.064;2022-10-16T07:47:10;18.20;65.80
19090;DHT22;9677;50.656;13.064;2022-10-16T07:49:39;18.20;65.90
19090;DHT22;9677;50.656;13.064;2022-10-16T07:52:08;18.30;66.90
19090;DHT22;9677;50.656;13.064;2022-10-16T07:54:38;18.40;66.30
19090;DHT22;9677;50.656;13.064;2022-10-16T07:57:07;18.40;66.30
19090;DHT22;9677;50.656;13.064;2022-10-16T07:59:35;18.50;66.20
19090;DHT22;9677;50.656;13.064;2022-10-16T08:02:04;18.60;66.20
19090;DHT22;9677;50.656;13.064;2022-10-16T08:04:33;18.60;66.30
19090;DHT22;9677;50.656;13.064;2022-10-16T08:07:02;18.70;66.30
19090;DHT22;9677;50.656;13.064;2022-10-16T08:09:30;18.70;66.20
19090;DHT22;9677;50.656;13.064;2022-10-16T08:12:00;18.80;66.20
19090;DHT22;9677;50.656;13.064;2022-10-16T08:14:29;18.90;66.30
19090;DHT22;9677;50.656;13.064;2022-10-16T08:16:57;19.00;66.30
19090;DHT22;9677;50.656;13.064;2022-10-16T08:19:26;19.00;66.20
19090;DHT22;9677;50.656;13.064;2022-10-16T08:21:55;19.10;66.20
19090;DHT22;9677;50.656;13.064;2022-10-16T08:24:23;19.10;66.10
19090;DHT22;9677;50.656;13.064;2022-10-16T08:26:53;19.20;66.10
19090;DHT22;9677;50.656;13.064;2022-10-16T08:29:23;19.30;66.20
19090;DHT22;9677;50.656;13.064;2022-10-16T08:31:52;19.30;65.90
19090;DHT22;9677;50.656;13.064;2022-10-16T08:34:20;19.40;65.90
19090;DHT22;9677;50.656;13.064;2022-10-16T08:36:49;19.50;65.90
19090;DHT22;9677;50.656;13.064;2022-10-16T08:39:18;19.50;65.70
19090;DHT22;9677;50.656;13.064;2022-10-16T08:42:19;19.60;65.60
19090;DHT22;9677;50.656;13.064;2022-10-16T08:45:19;19.60;65.60
19090;DHT22;9677;50.656;13.064;2022-10-16T08:48:04;19.70;65.40
19090;DHT22;9677;50.656;13.064;2022-10-16T08:50:39;19.90;65.30
19090;DHT22;9677;50.656;13.064;2022-10-16T08:53:16;19.80;65.10
19090;DHT22;9677;50.656;13.064;2022-10-16T08:55:50;19.90;65.10
19090;DHT22;9677;50.656;13.064;2022-10-16T08:58:21;19.90;65.00
19090;DHT22;9677;50.656;13.064;2022-10-16T09:00:54;20.00;64.90
19090;DHT22;9677;50.656;13.064;2022-10-16T09:03:45;20.00;64.80
19090;DHT22;9677;50.656;13.064;2022-10-16T09:06:32;20.10;64.70
19090;DHT22;9677;50.656;13.064;2022-10-16T09:09:26;20.20;64.60
19090;DHT22;9677;50.656;13.064;2022-10-16T09:12:05;20.20;64.40
19090;DHT22;9677;50.656;13.064;2022-10-16T09:14:50;20.30;64.40
19090;DHT22;9677;50.656;13.064;2022-10-16T09:17:32;20.30;64.20
19090;DHT22;9677;50.656;13.064;2022-10-16T09:20:25;20.40;64.10
19090;DHT22;9677;50.656;13.064;2022-10-16T09:23:10;20.50;64.00
19090;DHT22;9677;50.656;13.064;2022-10-16T09:25:45;20.50;63.80
19090;DHT22;9677;50.656;13.064;2022-10-16T09:28:17;20.60;63.80
19090;DHT22;9677;50.656;13.064;2022-10-16T09:30:47;20.60;63.60
19090;DHT22;9677;50.656;13.064;2022-10-16T09:33:20;20.70;63.60
19090;DHT22;9677;50.656;13.064;2022-10-16T09:35:51;20.70;63.30
19090;DHT22;9677;50.656;13.064;2022-10-16T09:38:24;20.80;63.30
19090;DHT22;9677;50.656;13.064;2022-10-16T09:40:56;20.80;63.30
19090;DHT22;9677;50.656;13.064;2022-10-16T09:43:34;20.90;63.20
19090;DHT22;9677;50.656;13.064;2022-10-16T09:46:06;20.90;63.00
19090;DHT22;9677;50.656;13.064;2022-10-16T09:48:43;21.00;62.90
19090;DHT22;9677;50.656;13.064;2022-10-16T09:51:19;21.00;62.80
19090;DHT22;9677;50.656;13.064;2022-10-16T09:53:55;21.00;62.50
19090;DHT22;9677;50.656;13.064;2022-10-16T09:56:26;21.10;62.60
19090;DHT22;9677;50.656;13.064;2022-10-16T09:58:58;21.10;62.60
19090;DHT22;9677;50.656;13.064;2022-10-16T10:01:31;21.10;62.50
19090;DHT22;9677;50.656;13.064;2022-10-16T10:04:06;21.20;62.50
19090;DHT22;9677;50.656;13.064;2022-10-16T10:06:37;21.20;62.40
19090;DHT22;9677;50.656;13.064;2022-10-16T10:09:21;21.20;62.30
19090;DHT22;9677;50.656;13.064;2022-10-16T10:11:53;21.30;61.90
19090;DHT22;9677;50.656;13.064;2022-10-16T10:14:31;21.30;62.00
19090;DHT22;9677;50.656;13.064;2022-10-16T10:17:15;21.40;62.00
19090;DHT22;9677;50.656;13.064;2022-10-16T10:19:50;21.50;61.90
19090;DHT22;9677;50.656;13.064;2022-10-16T10:22:31;21.50;61.80
19090;DHT22;9677;50.656;13.064;2022-10-16T10:25:20;21.50;61.70
19090;DHT22;9677;50.656;13.064;2022-10-16T10:28:17;21.60;61.70
19090;DHT22;9677;50.656;13.064;2022-10-16T10:30:56;21.60;61.60
19090;DHT22;9677;50.656;13.064;2022-10-16T10:33:36;21.60;61.50
19090;DHT22;9677;50.656;13.064;2022-10-16T10:36:29;21.70;61.50
19090;DHT22;9677;50.656;13.064;2022-10-16T10:39:04;21.70;61.20
19090;DHT22;9677;50.656;13.064;2022-10-16T10:44:42;21.80;61.20
19090;DHT22;9677;50.656;13.064;2022-10-16T10:47:29;21.90;61.30
19090;DHT22;9677;50.656;13.064;2022-10-16T10:50:10;21.90;61.20
19090;DHT22;9677;50.656;13.064;2022-10-16T10:52:52;22.00;61.40
19090;DHT22;9677;50.656;13.064;2022-10-16T10:55:37;22.00;61.20
19090;DHT22;9677;50.656;13.064;2022-10-16T10:58:28;22.00;61.10
19090;DHT22;9677;50.656;13.064;2022-10-16T11:01:28;22.10;61.10
19090;DHT22;9677;50.656;13.064;2022-10-16T11:04:23;22.20;61.00
19090;DHT22;9677;50.656;13.064;2022-10-16T11:07:04;22.20;60.70
19090;DHT22;9677;50.656;13.064;2022-10-16T11:09:38;22.30;60.80
19090;DHT22;9677;50.656;13.064;2022-10-16T11:12:14;22.30;60.70
19090;DHT22;9677;50.656;13.064;2022-10-16T11:14:49;22.30;60.60
19090;DHT22;9677;50.656;13.064;2022-10-16T11:17:25;22.40;60.40
19090;DHT22;9677;50.656;13.064;2022-10-16T11:20:00;22.50;60.50
19090;DHT22;9677;50.656;13.064;2022-10-16T11:22:34;22.50;60.40
19090;DHT22;9677;50.656;13.064;2022-10-16T11:25:13;22.50;60.40
19090;DHT22;9677;50.656;13.064;2022-10-16T11:27:49;22.60;60.10
19090;DHT22;9677;50.656;13.064;2022-10-16T11:30:22;22.70;60.20
19090;DHT22;9677;50.656;13.064;2022-10-16T11:33:01;22.70;60.30
19090;DHT22;9677;50.656;13.064;2022-10-16T11:35:39;22.80;60.40
19090;DHT22;9677;50.656;13.064;2022-10-16T11:38:16;22.80;60.50
19090;DHT22;9677;50.656;13.064;2022-10-16T11:40:53;22.90;60.40
19090;DHT22;9677;50.656;13.064;2022-10-16T11:43:29;23.00;60.10
19090;DHT22;9677;50.656;13.064;2022-10-16T11:46:05;23.10;60.00
19090;DHT22;9677;50.656;13.064;2022-10-16T11:48:41;23.20;59.80
19090;DHT22;9677;50.656;13.064;2022-10-16T11:51:19;23.20;59.60
19090;DHT22;9677;50.656;13.064;2022-10-16T11:53:57;23.30;59.40
19090;DHT22;9677;50.656;13.064;2022-10-16T11:56:31;23.50;59.20
19090;DHT22;9677;50.656;13.064;2022-10-16T11:59:05;23.40;59.00
19090;DHT22;9677;50.656;13.064;2022-10-16T12:01:42;23.40;58.90
19090;DHT22;9677;50.656;13.064;2022-10-16T12:04:21;23.50;58.70
19090;DHT22;9677;50.656;13.064;2022-10-16T12:06:55;23.40;58.50
19090;DHT22;9677;50.656;13.064;2022-10-16T12:09:28;23.50;58.60
19090;DHT22;9677;50.656;13.064;2022-10-16T12:11:59;23.50;58.60
19090;DHT22;9677;50.656;13.064;2022-10-16T12:14:37;23.50;58.40
19090;DHT22;9677;50.656;13.064;2022-10-16T12:17:34;23.50;58.20
19090;DHT22;9677;50.656;13.064;2022-10-16T12:20:20;23.60;58.20
19090;DHT22;9677;50.656;13.064;2022-10-16T12:22:55;23.60;58.10
19090;DHT22;9677;50.656;13.064;2022-10-16T12:25:27;23.60;58.40
19090;DHT22;9677;50.656;13.064;2022-10-16T12:28:01;23.60;58.30
19090;DHT22;9677;50.656;13.064;2022-10-16T12:30:33;23.70;58.20
19090;DHT22;9677;50.656;13.064;2022-10-16T12:33:05;23.70;58.20
19090;DHT22;9677;50.656;13.064;2022-10-16T12:35:49;23.70;58.10
19090;DHT22;9677;50.656;13.064;2022-10-16T12:38:19;23.70;58.10
19090;DHT22;9677;50.656;13.064;2022-10-16T12:40:58;23.70;58.10
19090;DHT22;9677;50.656;13.064;2022-10-16T12:43:38;23.80;57.70
19090;DHT22;9677;50.656;13.064;2022-10-16T12:46:36;23.80;57.70
19090;DHT22;9677;50.656;13.064;2022-10-16T12:49:21;23.80;57.30
19090;DHT22;9677;50.656;13.064;2022-10-16T12:51:57;23.80;57.50
19090;DHT22;9677;50.656;13.064;2022-10-16T12:54:28;23.90;57.70
19090;DHT22;9677;50.656;13.064;2022-10-16T12:57:09;23.90;57.70
19090;DHT22;9677;50.656;13.064;2022-10-16T12:59:54;23.90;57.40
19090;DHT22;9677;50.656;13.064;2022-10-16T13:02:44;23.90;57.60
19090;DHT22;9677;50.656;13.064;2022-10-16T13:05:51;23.90;57.40
19090;DHT22;9677;50.656;13.064;2022-10-16T13:08:44;23.90;57.40
19090;DHT22;9677;50.656;13.064;2022-10-16T13:11:24;24.00;57.20
19090;DHT22;9677;50.656;13.064;2022-10-16T13:14:18;24.00;57.50
19090;DHT22;9677;50.656;13.064;2022-10-16T13:17:18;24.00;57.20
19090;DHT22;9677;50.656;13.064;2022-10-16T13:19:57;24.00;57.20
19090;DHT22;9677;50.656;13.064;2022-10-16T13:22:35;24.00;57.20
19090;DHT22;9677;50.656;13.064;2022-10-16T13:25:21;24.00;57.20
19090;DHT22;9677;50.656;13.064;2022-10-16T13:27:55;24.00;56.90
19090;DHT22;9677;50.656;13.064;2022-10-16T13:30:26;24.00;57.10
19090;DHT22;9677;50.656;13.064;2022-10-16T13:33:01;24.00;56.90
19090;DHT22;9677;50.656;13.064;2022-10-16T13:35:33;24.00;56.60
19090;DHT22;9677;50.656;13.064;2022-10-16T13:38:11;24.00;56.70
19090;DHT22;9677;50.656;13.064;2022-10-16T13:40:54;23.90;56.60
19090;DHT22;9677;50.656;13.064;2022-10-16T13:43:27;23.90;56.30
19090;DHT22;9677;50.656;13.064;2022-10-16T13:45:59;23.90;56.80
19090;DHT22;9677;50.656;13.064;2022-10-16T13:48:32;23.90;56.80
19090;DHT22;9677;50.656;13.064;2022-10-16T13:51:04;23.90;56.80
19090;DHT22;9677;50.656;13.064;2022-10-16T13:53:35;23.90;56.90
19090;DHT22;9677;50.656;13.064;2022-10-16T13:56:06;23.90;57.00
19090;DHT22;9677;50.656;13.064;2022-10-16T13:58:37;23.90;57.10
19090;DHT22;9677;50.656;13.064;2022-10-16T14:01:16;23.90;57.10
19090;DHT22;9677;50.656;13.064;2022-10-16T14:03:48;23.90;56.90
19090;DHT22;9677;50.656;13.064;2022-10-16T14:06:19;23.90;57.10
19090;DHT22;9677;50.656;13.064;2022-10-16T14:08:52;23.90;57.10
19090;DHT22;9677;50.656;13.064;2022-10-16T14:11:25;23.90;57.00
19090;DHT22;9677;50.656;13.064;2022-10-16T14:13:55;23.90;57.10
19090;DHT22;9677;50.656;13.064;2022-10-16T14:16:26;23.90;57.10
19090;DHT22;9677;50.656;13.064;2022-10-16T14:19:00;23.90;57.00
19090;DHT22;9677;50.656;13.064;2022-10-16T14:21:29;23.90;57.00
19090;DHT22;9677;50.656;13.064;2022-10-16T14:23:59;23.90;57.10
19090;DHT22;9677;50.656;13.064;2022-10-16T14:26:28;23.90;57.10
19090;DHT22;9677;50.656;13.064;2022-10-16T14:29:11;23.90;57.10
19090;DHT22;9677;50.656;13.064;2022-10-16T14:31:41;23.90;57.00
19090;DHT22;9677;50.656;13.064;2022-10-16T14:34:28;23.90;57.10
19090;DHT22;9677;50.656;13.064;2022-10-16T14:37:01;23.90;56.90
19090;DHT22;9677;50.656;13.064;2022-10-16T14:39:35;23.90;57.10
19090;DHT22;9677;50.656;13.064;2022-10-16T14:42:04;23.90;57.00
19090;DHT22;9677;50.656;13.064;2022-10-16T14:44:33;23.90;57.10
19090;DHT22;9677;50.656;13.064;2022-10-16T14:47:13;23.90;57.20
19090;DHT22;9677;50.656;13.064;2022-10-16T14:49:50;23.90;57.20
19090;DHT22;9677;50.656;13.064;2022-10-16T14:52:20;23.90;57.40
19090;DHT22;9677;50.656;13.064;2022-10-16T14:54:49;23.90;57.50
19090;DHT22;9677;50.656;13.064;2022-10-16T14:57:19;24.00;57.60
19090;DHT22;9677;50.656;13.064;2022-10-16T14:59:49;24.00;57.60
19090;DHT22;9677;50.656;13.064;2022-10-16T15:02:25;24.00;57.50
19090;DHT22;9677;50.656;13.064;2022-10-16T15:04:58;24.10;57.40
19090;DHT22;9677;50.656;13.064;2022-10-16T15:07:33;24.10;57.20
19090;DHT22;9677;50.656;13.064;2022-10-16T15:10:02;24.10;57.20
19090;DHT22;9677;50.656;13.064;2022-10-16T15:12:30;24.20;57.20
19090;DHT22;9677;50.656;13.064;2022-10-16T15:15:00;24.20;57.10
19090;DHT22;9677;50.656;13.064;2022-10-16T15:17:28;24.20;57.10
19090;DHT22;9677;50.656;13.064;2022-10-16T15:19:58;24.20;57.10
19090;DHT22;9677;50.656;13.064;2022-10-16T15:22:27;24.20;56.90
19090;DHT22;9677;50.656;13.064;2022-10-16T15:24:55;24.20;56.90
19090;DHT22;9677;50.656;13.064;2022-10-16T15:27:24;24.20;56.90
19090;DHT22;9677;50.656;13.064;2022-10-16T15:29:53;24.20;56.80
19090;DHT22;9677;50.656;13.064;2022-10-16T15:32:22;24.20;56.80
19090;DHT22;9677;50.656;13.064;2022-10-16T15:34:50;24.20;57.30
19090;DHT22;9677;50.656;13.064;2022-10-16T15:37:20;24.10;56.70
19090;DHT22;9677;50.656;13.064;2022-10-16T15:39:50;24.10;56.60
19090;DHT22;9677;50.656;13.064;2022-10-16T15:42:18;24.10;56.60
19090;DHT22;9677;50.656;13.064;2022-10-16T15:44:47;24.10;56.60
19090;DHT22;9677;50.656;13.064;2022-10-16T15:47:18;24.00;56.50
19090;DHT22;9677;50.656;13.064;2022-10-16T15:49:46;24.00;56.50
19090;DHT22;9677;50.656;13.064;2022-10-16T15:52:15;23.90;56.40
19090;DHT22;9677;50.656;13.064;2022-10-16T15:54:45;23.90;56.40
19090;DHT22;9677;50.656;13.064;2022-10-16T15:57:20;23.80;56.60
19090;DHT22;9677;50.656;13.064;2022-10-16T15:59:49;23.70;56.40
19090;DHT22;9677;50.656;13.064;2022-10-16T16:02:18;23.70;56.50
19090;DHT22;9677;50.656;13.064;2022-10-16T16:04:46;23.60;56.40
19090;DHT22;9677;50.656;13.064;2022-10-16T16:07:15;23.50;56.40
19090;DHT22;9677;50.656;13.064;2022-10-16T16:09:45;23.50;56.50
19090;DHT22;9677;50.656;13.064;2022-10-16T16:12:14;23.40;56.50